Time;durP1;ratioP1;P1;durP2;ratioP2;P2;SDS_P1;SDS_P2;PMS_P1;PMS_P2;Temp;Humidity;BMP_temperature;BMP_pressure;BME280_temperature;BME280_humidity;BME280_pressure;Samples;Min_cycle;Max_cycle;Signal;HPM_P1;HPM_P2
2022/09/28 00:02:06;;;;;;;11.52;2.22;;;;;;;12.53;83.73;92974.16;6165360;23;20066;-89
2022/09/28 00:04:34;;;;;;;5.07;2.70;;;;;;;12.55;83.70;92958.56;6163915;23;20001;-88
2022/09/28 00:07:00;;;;;;;4.30;2.65;;;;;;;12.55;83.69;92956.66;6166055;23;19998;-88
2022/09/28 00:09:26;;;;;;;4.40;2.17;;;;;;;12.54;83.33;92962.38;6164214;23;20001;-88
2022/09/28 00:11:55;;;;;;;4.63;2.42;;;;;;;12.56;83.11;92954.78;6166290;23;20004;-89
2022/09/28 00:14:21;;;;;;;3.92;2.28;;;;;;;12.58;83.12;92960.53;6167118;23;20014;-88
2022/09/28 00:16:47;;;;;;;8.13;2.22;;;;;;;12.56;83.28;92955.53;6167262;23;20017;-89
2022/09/28 00:19:13;;;;;;;5.47;2.83;;;;;;;12.54;82.96;92963.13;6168007;23;20207;-87
2022/09/28 00:21:40;;;;;;;10.00;1.98;;;;;;;12.54;82.71;92957.78;6167056;23;19998;-87
2022/09/28 00:24:14;;;;;;;5.20;1.75;;;;;;;12.51;82.87;92952.34;6166965;23;20005;-87
2022/09/28 00:26:42;;;;;;;7.82;2.00;;;;;;;12.51;82.90;92955.78;6167157;23;20176;-87
2022/09/28 00:29:15;;;;;;;5.53;2.63;;;;;;;12.49;82.79;92950.03;6167505;23;20005;-87
2022/09/28 00:31:41;;;;;;;9.57;3.42;;;;;;;12.46;83.00;92961.41;6167775;23;20040;-90
2022/09/28 00:34:06;;;;;;;6.07;2.00;;;;;;;12.46;82.68;92958.75;6167664;23;20001;-89
2022/09/28 00:36:32;;;;;;;6.47;2.00;;;;;;;12.43;82.58;92954.06;6167468;23;20292;-90
2022/09/28 00:39:01;;;;;;;5.97;2.22;;;;;;;12.31;82.52;92948.81;6167704;23;19997;-90
2022/09/28 00:41:28;;;;;;;5.68;1.95;;;;;;;12.30;82.57;92948.06;6166572;23;20052;-90
2022/09/28 00:44:33;;;;;;;6.57;2.15;;;;;;;12.32;82.42;92950.38;6166118;23;19994;-90
2022/09/28 00:47:20;;;;;;;9.13;2.10;;;;;;;12.30;82.34;92944.63;6167728;23;20009;-90
2022/09/28 00:49:54;;;;;;;9.25;1.88;;;;;;;12.28;82.68;92955.66;6167636;23;20002;-89
2022/09/28 00:52:52;;;;;;;6.78;1.90;;;;;;;12.25;81.94;92953.66;6167539;23;20342;-90
2022/09/28 00:56:10;;;;;;;6.70;1.70;;;;;;;12.20;82.14;92957.34;6156142;23;20212;-90
2022/09/28 00:58:40;;;;;;;5.03;2.00;;;;;;;12.19;81.59;92950.47;6103534;23;20016;-91
2022/09/28 01:01:06;;;;;;;5.07;1.90;;;;;;;12.20;81.45;92954.69;6167412;23;20002;-90
2022/09/28 01:03:32;;;;;;;2.67;1.30;;;;;;;12.16;81.07;92953.81;6167066;23;20001;-89
2022/09/28 01:06:01;;;;;;;4.65;1.85;;;;;;;12.08;80.87;92957.44;6168377;23;20060;-89
2022/09/28 01:08:29;;;;;;;2.50;1.48;;;;;;;12.10;81.44;92959.78;6166926;23;20005;-89
2022/09/28 01:10:56;;;;;;;5.03;1.63;;;;;;;12.10;81.66;92959.78;6167356;23;19997;-90
2022/09/28 01:13:25;;;;;;;9.20;2.00;;;;;;;12.12;81.79;92958.31;6167129;23;20017;-89
2022/09/28 01:16:13;;;;;;;4.63;2.15;;;;;;;12.17;82.15;92959.94;6167041;23;20025;-89
2022/09/28 01:18:39;;;;;;;5.88;1.73;;;;;;;12.18;82.25;92959.59;6169918;23;20049;-88
2022/09/28 01:21:15;;;;;;;6.22;2.15;;;;;;;12.19;82.24;92950.47;6169301;23;20004;-90
2022/09/28 01:24:18;;;;;;;7.75;2.00;;;;;;;12.22;82.28;92957.78;6166837;23;20002;-87
2022/09/28 01:26:54;;;;;;;5.75;1.77;;;;;;;12.12;82.03;92955.63;6168084;23;19993;-88
2022/09/28 01:30:03;;;;;;;7.57;2.40;;;;;;;12.11;82.16;92948.75;6167220;23;19998;-87
2022/09/28 01:32:51;;;;;;;7.40;1.80;;;;;;;12.14;82.41;92965.97;6048279;23;20023;-87
2022/09/28 01:35:25;;;;;;;3.80;1.77;;;;;;;12.05;82.10;92968.81;6048671;23;20186;-88
2022/09/28 01:38:11;;;;;;;5.45;2.03;;;;;;;12.06;82.30;92959.69;6132817;23;20008;-87
2022/09/28 01:40:37;;;;;;;5.85;1.98;;;;;;;11.99;82.31;92968.31;6166500;23;20001;-88
2022/09/28 01:43:10;;;;;;;4.50;1.75;;;;;;;11.99;82.74;92970.97;6166537;23;19997;-89
2022/09/28 01:45:46;;;;;;;;;;;;;;;12.01;82.63;92959.94;6176441;23;19997;-88
2022/09/28 01:48:18;;;;;;;4.18;1.70;;;;;;;11.98;82.35;92958.72;6167218;23;19908;-89
2022/09/28 01:50:49;;;;;;;3.75;2.00;;;;;;;11.99;82.83;92968.31;6169168;23;20048;-88
2022/09/28 01:53:24;;;;;;;5.00;2.03;;;;;;;11.91;83.00;92965.81;6166949;23;20069;-90
2022/09/28 01:55:55;;;;;;;6.50;1.70;;;;;;;11.94;82.93;92967.75;6169253;23;20006;-90
2022/09/28 01:58:32;;;;;;;6.13;1.80;;;;;;;11.87;82.87;92951.56;6170423;23;20016;-89
2022/09/28 02:01:16;;;;;;;7.65;2.03;;;;;;;11.89;82.88;92963.47;6170018;23;20057;-88
2022/09/28 02:04:10;;;;;;;4.15;1.88;;;;;;;11.90;83.01;92967.66;6170579;23;20006;-88
2022/09/28 02:06:40;;;;;;;2.70;1.70;;;;;;;11.90;82.85;92961.56;6156293;23;20001;-85
2022/09/28 02:09:12;;;;;;;8.25;1.88;;;;;;;11.92;83.02;92968.09;6168140;23;20318;-88
2022/09/28 02:11:46;;;;;;;4.70;2.03;;;;;;;11.91;83.13;92971.13;6166068;23;19997;-88
2022/09/28 02:14:15;;;;;;;7.57;1.80;;;;;;;11.85;82.54;92976.69;6166750;23;20362;-88
2022/09/28 02:16:43;;;;;;;6.97;1.83;;;;;;;11.79;82.64;92970.03;6169566;23;20235;-87
2022/09/28 02:19:12;;;;;;;3.22;1.92;;;;;;;11.71;82.86;92976.31;6164945;23;20008;-88
2022/09/28 02:21:58;;;;;;;3.05;1.55;;;;;;;11.73;83.11;92966.06;6166133;23;20001;-88
2022/09/28 02:24:36;;;;;;;3.85;2.22;;;;;;;11.77;83.33;92969.59;6166319;23;19998;-87
2022/09/28 02:27:11;;;;;;;5.90;2.58;;;;;;;11.79;83.64;92970.03;6166264;23;20065;-88
2022/09/28 02:29:37;;;;;;;3.97;2.03;;;;;;;11.81;83.67;92967.81;6166302;23;20199;-88
2022/09/28 02:32:02;;;;;;;3.30;2.05;;;;;;;11.83;83.90;92965.56;6166075;23;20013;-88
2022/09/28 02:34:28;;;;;;;7.38;2.85;;;;;;;11.84;83.97;92969.00;6166294;23;19997;-88
2022/09/28 02:36:54;;;;;;;4.38;2.70;;;;;;;11.87;83.74;92978.25;6166410;23;20002;-88
2022/09/28 02:39:21;;;;;;;5.15;3.17;;;;;;;11.85;83.51;92975.91;6166466;23;20048;-88
2022/09/28 02:42:01;;;;;;;5.93;2.80;;;;;;;11.85;83.40;92955.31;6165980;23;19998;-88
2022/09/28 02:44:56;;;;;;;5.57;2.90;;;;;;;11.87;83.23;92963.00;6166512;23;20005;-88
2022/09/28 02:47:40;;;;;;;5.32;3.20;;;;;;;11.87;83.15;92973.69;6169735;23;20216;-89
2022/09/28 02:50:20;;;;;;;8.85;3.55;;;;;;;11.88;83.13;92977.13;6169291;23;20048;-89
2022/09/28 02:53:13;;;;;;;7.05;2.92;;;;;;;11.88;83.15;92979.78;6170822;23;20023;-89
2022/09/28 02:55:52;;;;;;;6.40;3.00;;;;;;;11.84;83.07;92977.81;6168535;23;20010;-89
2022/09/28 02:58:36;;;;;;;9.02;2.92;;;;;;;11.84;83.23;92979.69;6167479;23;19998;-89
2022/09/28 03:01:20;;;;;;;4.50;2.75;;;;;;;11.85;83.25;92982.03;6175505;23;20001;-90
2022/09/28 03:03:49;;;;;;;7.00;2.83;;;;;;;11.78;83.04;92989.84;6174635;23;20049;-89
2022/09/28 03:06:26;;;;;;;8.57;3.15;;;;;;;11.67;83.62;92994.13;6175951;23;20057;-89
2022/09/28 03:08:56;;;;;;;7.40;3.38;;;;;;;11.66;84.20;92989.88;6170204;23;20050;-88
2022/09/28 03:11:29;;;;;;;7.85;2.65;;;;;;;11.71;83.99;92991.56;6166007;23;20002;-87
2022/09/28 03:13:55;;;;;;;8.88;2.65;;;;;;;11.74;83.79;93002.31;6165715;23;20160;-88
2022/09/28 03:16:21;;;;;;;7.60;2.92;;;;;;;11.71;83.89;93002.25;6166093;23;20005;-87
2022/09/28 03:18:47;;;;;;;9.93;3.08;;;;;;;11.69;84.14;93005.25;6165803;23;20283;-88
2022/09/28 03:21:14;;;;;;;9.90;3.45;;;;;;;11.69;84.12;93002.56;6165789;23;20311;-87
2022/09/28 03:23:40;;;;;;;7.55;2.72;;;;;;;11.75;84.19;93003.88;6165632;23;20021;-88
2022/09/28 03:26:07;;;;;;;7.00;3.63;;;;;;;11.81;84.02;93013.19;6165506;23;20016;-89
2022/09/28 03:28:35;;;;;;;8.65;3.00;;;;;;;11.84;84.20;93006.38;6165520;23;19997;-88
2022/09/28 03:31:00;;;;;;;9.38;3.75;;;;;;;11.86;nan;93020.19;6165621;23;20009;-89
2022/09/28 03:33:28;;;;;;;6.28;2.67;;;;;;;11.92;84.49;93007.38;6165785;23;20001;-88
2022/09/28 03:35:54;;;;;;;5.97;3.45;;;;;;;11.94;84.63;93015.84;6166019;23;20205;-87
2022/09/28 03:38:20;;;;;;;8.23;3.63;;;;;;;12.01;84.60;93014.13;6166864;23;20017;-87
2022/09/28 03:40:55;;;;;;;9.70;2.72;;;;;;;12.06;84.35;93009.66;6165851;23;20043;-88
2022/09/28 03:43:21;;;;;;;7.53;3.42;;;;;;;12.13;84.32;93012.50;6166356;23;19997;-87
2022/09/28 03:45:54;;;;;;;7.35;3.33;;;;;;;12.18;84.05;93015.69;6168761;23;20002;-88
2022/09/28 03:48:22;;;;;;;8.75;3.42;;;;;;;12.21;84.02;93014.22;6168865;23;20044;-87
2022/09/28 03:50:47;;;;;;;5.35;3.47;;;;;;;12.22;84.17;93005.88;6168584;23;20303;-87
2022/09/28 03:53:13;;;;;;;5.75;3.28;;;;;;;12.27;84.26;93012.09;6168308;23;19999;-88
2022/09/28 03:55:38;;;;;;;11.43;3.63;;;;;;;12.30;84.15;93012.19;6168717;23;20196;-88
2022/09/28 03:58:04;;;;;;;6.93;3.55;;;;;;;12.37;84.17;93016.91;6168590;23;20269;-87
2022/09/28 04:00:29;;;;;;;10.68;4.03;;;;;;;12.36;84.54;93016.16;6168403;23;19997;-88
2022/09/28 04:02:57;;;;;;;7.53;3.72;;;;;;;12.42;84.36;93008.66;6167909;23;19997;-88
2022/09/28 04:05:23;;;;;;;8.90;3.60;;;;;;;12.46;84.49;93014.88;6169207;23;20308;-88
2022/09/28 04:07:48;;;;;;;8.05;3.88;;;;;;;12.49;84.56;93024.09;6166720;23;20005;-88
2022/09/28 04:10:14;;;;;;;13.27;5.15;;;;;;;12.51;84.66;93009.25;6168304;23;20052;-88
2022/09/28 04:12:39;;;;;;;9.35;5.28;;;;;;;12.56;84.45;93008.22;6167946;23;20295;-87
2022/09/28 04:15:05;;;;;;;13.07;5.93;;;;;;;12.59;84.42;93010.97;6167362;23;20005;-87
2022/09/28 04:17:31;;;;;;;7.47;4.45;;;;;;;12.62;84.33;92996.94;6166758;23;20044;-87
2022/09/28 04:19:57;;;;;;;10.23;4.68;;;;;;;12.62;84.25;93007.63;6167653;23;20004;-87
2022/09/28 04:22:23;;;;;;;6.05;4.18;;;;;;;12.68;83.86;93012.69;6167210;23;20021;-87
2022/09/28 04:24:48;;;;;;;8.10;3.92;;;;;;;12.67;83.67;93024.53;6167331;23;20008;-87
2022/09/28 04:29:58;;;;;;;8.55;4.40;;;;;;;12.70;83.62;93018.47;6166904;23;20092;-88
2022/09/28 04:32:23;;;;;;;7.25;4.95;;;;;;;12.72;83.58;93017.00;6165223;23;20060;-87
2022/09/28 04:34:50;;;;;;;9.07;3.85;;;;;;;12.71;83.54;93025.38;6169881;23;20287;-90
2022/09/28 04:37:15;;;;;;;5.55;3.95;;;;;;;12.69;83.42;93019.59;6174016;23;20001;-91
2022/09/28 04:39:41;;;;;;;6.28;3.25;;;;;;;12.68;83.02;93023.38;6171428;23;20004;-89
2022/09/28 04:42:08;;;;;;;9.27;3.88;;;;;;;12.67;83.11;93009.25;6172213;23;20006;-90
2022/09/28 04:44:34;;;;;;;8.25;3.90;;;;;;;12.61;83.10;93011.41;6170658;23;19997;-90
2022/09/28 04:46:59;;;;;;;4.88;3.25;;;;;;;12.71;83.36;93009.34;6167850;23;20079;-91
2022/09/28 04:49:25;;;;;;;11.00;4.32;;;;;;;12.74;83.41;93009.41;6169325;23;20028;-90
2022/09/28 04:51:50;;;;;;;5.60;3.90;;;;;;;12.78;83.39;93010.28;6168730;23;19997;-89
2022/09/28 04:54:16;;;;;;;5.25;3.53;;;;;;;12.80;83.96;92991.19;6166398;23;19990;-89
2022/09/28 04:56:41;;;;;;;10.23;4.35;;;;;;;12.85;84.02;92998.97;6167511;23;20204;-90
2022/09/28 04:59:07;;;;;;;12.60;5.38;;;;;;;12.90;83.99;92996.00;6167413;23;20002;-90
2022/09/28 05:01:32;;;;;;;18.30;6.47;;;;;;;12.97;83.78;93008.78;6167427;23;20200;-89
2022/09/28 05:03:58;;;;;;;11.80;5.32;;;;;;;12.93;82.96;93011.38;6165533;23;19994;-88
2022/09/28 05:06:26;;;;;;;8.60;5.07;;;;;;;12.92;83.29;93009.81;6166982;23;20002;-88
2022/09/28 05:08:56;;;;;;;7.82;4.90;;;;;;;12.94;83.24;93012.91;6167973;23;20005;-91
2022/09/28 05:11:21;;;;;;;10.40;5.07;;;;;;;12.88;83.49;93019.66;6168830;23;20065;-90
2022/09/28 05:13:49;;;;;;;8.70;4.63;;;;;;;12.91;83.83;93029.66;6169322;23;19993;-89
2022/09/28 05:16:15;;;;;;;7.47;4.07;;;;;;;12.89;83.89;93025.78;6171670;23;20032;-88
2022/09/28 05:18:43;;;;;;;11.10;4.95;;;;;;;12.89;84.24;93023.88;6167316;23;20291;-89
2022/09/28 05:21:11;;;;;;;9.52;5.50;;;;;;;12.92;84.33;93020.50;6169005;23;20008;-89
2022/09/28 05:23:37;;;;;;;12.52;4.13;;;;;;;12.99;84.41;93009.22;6167250;23;20001;-89
2022/09/28 05:26:03;;;;;;;11.52;5.80;;;;;;;13.07;84.08;93026.16;6167094;23;20004;-89
2022/09/28 05:28:30;;;;;;;32.40;6.20;;;;;;;13.13;84.37;93022.91;6165910;23;20001;-89
2022/09/28 05:31:01;;;;;;;16.77;5.47;;;;;;;13.17;84.46;93014.97;6168957;23;20088;-81
2022/09/28 05:33:27;;;;;;;24.17;6.95;;;;;;;13.24;84.41;93001.72;6168335;23;20002;-90
2022/09/28 05:35:53;;;;;;;22.75;6.47;;;;;;;13.30;84.42;93013.72;6169628;23;19994;-90
2022/09/28 05:38:18;;;;;;;15.32;6.50;;;;;;;13.36;84.81;93028.38;6171377;23;20024;-91
2022/09/28 05:40:44;;;;;;;25.20;6.47;;;;;;;13.41;84.50;93028.13;6170070;23;20207;-89
2022/09/28 05:43:09;;;;;;;12.02;7.35;;;;;;;13.49;83.51;93028.25;6166490;23;20280;-87
2022/09/28 05:45:35;;;;;;;17.17;7.97;;;;;;;13.48;83.61;93038.19;6166116;23;19997;-88
2022/09/28 05:48:01;;;;;;;20.45;9.93;;;;;;;13.48;83.69;93035.50;6166113;23;20005;-87
2022/09/28 05:50:26;;;;;;;19.90;9.10;;;;;;;13.52;83.31;93032.91;6166082;23;20024;-87
2022/09/28 05:53:04;;;;;;;14.90;9.20;;;;;;;13.55;83.71;93018.81;6166233;23;19993;-87
2022/09/28 05:55:30;;;;;;;24.00;9.75;;;;;;;13.57;82.84;93033.41;6166191;23;20061;-88
2022/09/28 05:58:04;;;;;;;18.27;8.38;;;;;;;13.64;82.79;93035.47;6166866;23;20001;-89
2022/09/28 06:00:31;;;;;;;29.17;9.15;;;;;;;13.67;83.13;93032.06;6172022;23;20001;-89
2022/09/28 06:03:00;;;;;;;23.25;8.25;;;;;;;13.75;82.63;93036.44;6166038;23;20017;-86
2022/09/28 06:05:27;;;;;;;12.82;6.97;;;;;;;13.84;82.53;93038.94;6166384;23;20006;-88
2022/09/28 06:07:57;;;;;;;15.57;7.18;;;;;;;13.91;82.54;93033.69;6166262;23;20201;-89
2022/09/28 06:10:24;;;;;;;19.42;7.72;;;;;;;14.01;82.59;93043.06;6166576;23;20005;-93
2022/09/28 06:12:56;;;;;;;18.40;8.07;;;;;;;14.10;82.70;93032.13;6165905;23;19994;-90
2022/09/28 06:15:27;;;;;;;19.73;9.15;;;;;;;14.22;82.71;93027.38;6167725;23;20056;-92
2022/09/28 06:18:09;;;;;;;22.95;9.80;;;;;;;14.32;83.16;93030.59;6165749;23;19997;-93
2022/09/28 06:20:37;;;;;;;18.52;9.70;;;;;;;14.45;83.00;93037.34;6164460;23;20008;-75
2022/09/28 06:23:03;;;;;;;17.80;9.50;;;;;;;14.48;82.60;93044.66;6164647;23;19997;-75
2022/09/28 06:25:28;;;;;;;16.95;9.18;;;;;;;14.59;82.24;93036.81;6164298;23;20299;-75
2022/09/28 06:28:01;;;;;;;18.55;9.50;;;;;;;14.73;81.24;93037.06;6164469;23;20013;-74
2022/09/28 06:30:31;;;;;;;17.85;10.07;;;;;;;14.85;80.82;93044.91;6164408;23;20087;-75
2022/09/28 06:32:58;;;;;;;19.83;10.95;;;;;;;14.91;80.58;93056.13;6163008;23;20017;-74
2022/09/28 06:35:25;;;;;;;24.75;11.70;;;;;;;14.97;80.27;93060.06;6164578;23;20097;-75
2022/09/28 06:37:52;;;;;;;22.35;11.13;;;;;;;14.96;80.06;93058.53;6164591;23;20048;-75
2022/09/28 06:40:19;;;;;;;20.92;10.85;;;;;;;14.98;80.48;93058.13;6164556;23;20044;-82
2022/09/28 06:42:57;;;;;;;22.33;11.75;;;;;;;15.03;80.52;93060.53;6164683;23;20060;-88
2022/09/28 06:45:24;;;;;;;24.23;11.65;;;;;;;15.15;80.73;93051.50;6164357;23;20024;-87
2022/09/28 06:47:57;;;;;;;21.08;11.40;;;;;;;15.26;80.81;93052.44;6165313;23;20002;-86
2022/09/28 06:50:25;;;;;;;23.08;10.07;;;;;;;15.21;80.05;93063.50;6165951;23;20009;-86
2022/09/28 06:52:52;;;;;;;15.02;9.45;;;;;;;15.35;79.73;93055.66;6166093;23;20021;-89
2022/09/28 06:55:21;;;;;;;15.43;8.40;;;;;;;15.41;77.54;93064.94;6165555;23;20056;-88
2022/09/28 06:57:47;;;;;;;21.52;9.48;;;;;;;15.43;76.96;93054.59;6165871;23;20008;-87
2022/09/28 07:00:15;;;;;;;21.00;10.85;;;;;;;15.48;77.20;93053.50;6165508;23;20010;-84
2022/09/28 07:02:41;;;;;;;17.27;10.32;;;;;;;15.57;78.38;93050.53;6165094;23;20435;-84
2022/09/28 07:05:11;;;;;;;24.70;12.27;;;;;;;15.68;78.94;93056.84;6164923;23;20013;-82
2022/09/28 07:07:36;;;;;;;23.05;12.55;;;;;;;15.83;79.63;93047.88;6164879;23;19993;-86
2022/09/28 07:10:02;;;;;;;25.23;11.57;;;;;;;16.02;79.26;93057.69;6165352;23;20239;-82
2022/09/28 07:12:29;;;;;;;28.08;12.88;;;;;;;16.20;78.05;93057.88;6165314;23;20275;-84
2022/09/28 07:14:56;;;;;;;26.42;11.95;;;;;;;16.30;78.09;93051.06;6165328;23;20085;-85
2022/09/28 07:17:22;;;;;;;24.35;13.57;;;;;;;16.37;77.43;93063.81;6165290;23;20028;-83
2022/09/28 07:19:51;;;;;;;26.35;13.73;;;;;;;16.34;75.52;93062.63;6164562;23;20235;-84
2022/09/28 07:22:20;;;;;;;23.02;14.07;;;;;;;16.32;75.58;93061.44;6164560;23;20020;-83
2022/09/28 07:24:47;;;;;;;19.17;11.98;;;;;;;16.34;75.59;93072.59;6163355;23;19997;-81
2022/09/28 07:27:12;;;;;;;30.13;13.07;;;;;;;16.38;74.98;93066.13;6164888;23;20009;-82
2022/09/28 07:29:38;;;;;;;25.98;13.82;;;;;;;16.41;74.64;93073.47;6164195;23;20020;-82
2022/09/28 07:32:03;;;;;;;27.00;13.52;;;;;;;16.37;74.61;93080.72;6164948;23;20056;-88
2022/09/28 07:34:29;;;;;;;24.48;14.27;;;;;;;16.35;74.94;93084.94;6166200;23;20052;-88
2022/09/28 07:36:56;;;;;;;25.70;12.95;;;;;;;16.33;73.90;93085.28;6166763;23;20009;-80
2022/09/28 07:39:22;;;;;;;18.60;10.32;;;;;;;16.37;72.35;93086.09;6165042;23;20048;-81
2022/09/28 07:41:48;;;;;;;22.35;10.90;;;;;;;16.41;74.04;93086.91;6165089;23;20002;-81
2022/09/28 07:44:14;;;;;;;19.42;10.15;;;;;;;16.48;74.30;93080.81;6165017;23;20005;-81
2022/09/28 07:46:40;;;;;;;17.77;10.77;;;;;;;16.56;72.84;93082.44;6164500;23;20013;-79
2022/09/28 07:49:05;;;;;;;20.83;9.60;;;;;;;16.59;71.74;93070.19;6164753;23;20008;-78
2022/09/28 07:51:32;;;;;;;21.58;10.10;;;;;;;16.66;71.46;93083.69;6164781;23;20001;-83
2022/09/28 07:54:00;;;;;;;19.55;8.80;;;;;;;16.70;70.33;93081.81;6164570;23;20005;-82
2022/09/28 07:56:26;;;;;;;19.35;7.97;;;;;;;16.75;70.71;93088.75;6164894;23;19997;-83
2022/09/28 07:58:52;;;;;;;17.02;8.45;;;;;;;16.79;69.25;93089.56;6165033;23;20069;-83
2022/09/28 08:01:18;;;;;;;17.75;7.70;;;;;;;16.88;68.58;93092.00;6165186;23;19997;-84
2022/09/28 08:03:45;;;;;;;17.23;7.75;;;;;;;16.88;67.86;93081.25;6164328;23;20291;-85
2022/09/28 08:06:13;;;;;;;14.98;7.78;;;;;;;16.85;68.30;93088.13;6165266;23;19998;-85
2022/09/28 08:08:45;;;;;;;18.60;7.05;;;;;;;16.90;68.74;93095.88;6165241;23;20013;-89
2022/09/28 08:11:12;;;;;;;13.02;6.85;;;;;;;16.89;67.74;93094.31;6165272;23;19997;-85
2022/09/28 08:13:42;;;;;;;14.60;8.70;;;;;;;16.89;68.07;93090.84;6165308;23;20008;-88
2022/09/28 08:16:08;;;;;;;23.67;7.28;;;;;;;16.88;67.85;93092.00;6165654;23;20029;-87
2022/09/28 08:18:35;;;;;;;17.48;8.25;;;;;;;16.96;68.54;93089.00;6165607;23;20002;-80
2022/09/28 08:23:49;;;;;;;18.67;8.18;;;;;;;17.03;69.96;93105.19;6165474;23;20004;-87
2022/09/28 08:26:15;;;;;;;18.40;8.07;;;;;;;17.05;69.56;93094.81;6165266;23;20001;-85
2022/09/28 08:28:42;;;;;;;19.13;9.52;;;;;;;17.08;68.91;93097.94;6165181;23;19997;-83
2022/09/28 08:31:08;;;;;;;16.75;9.80;;;;;;;17.10;68.55;93101.03;6166249;23;20240;-81
2022/09/28 08:33:34;;;;;;;22.35;10.80;;;;;;;17.07;68.31;93097.16;6166655;23;20001;-81
2022/09/28 08:36:00;;;;;;;27.90;9.68;;;;;;;17.04;68.97;93087.91;6166833;23;20036;-85
2022/09/28 08:38:28;;;;;;;25.88;8.98;;;;;;;17.04;69.55;93095.22;6167640;23;20001;-88
2022/09/28 08:41:03;;;;;;;20.88;8.35;;;;;;;17.00;69.26;93089.81;6167873;23;20053;-88
2022/09/28 08:43:53;;;;;;;15.60;7.93;;;;;;;17.00;69.31;93089.03;6166680;23;20204;-83
2022/09/28 08:46:22;;;;;;;19.67;7.40;;;;;;;16.97;69.12;93095.91;6167063;23;20001;-85
2022/09/28 08:48:56;;;;;;;14.25;7.00;;;;;;;16.95;69.68;93092.81;6167802;23;20024;-87
2022/09/28 08:51:25;;;;;;;18.92;7.55;;;;;;;16.99;69.44;93082.09;6167922;23;20199;-88
2022/09/28 08:53:54;;;;;;;15.43;6.22;;;;;;;17.05;69.45;93083.28;6165721;23;19997;-83
2022/09/28 08:56:42;;;;;;;12.77;6.18;;;;;;;17.14;69.47;93083.75;6166517;23;20230;-85
2022/09/28 08:59:16;;;;;;;14.85;6.00;;;;;;;17.19;69.33;93080.72;6167137;23;20005;-85
2022/09/28 09:01:48;;;;;;;13.90;5.50;;;;;;;17.29;68.23;93084.63;6167631;23;20048;-89
2022/09/28 09:04:14;;;;;;;13.70;6.20;;;;;;;17.27;68.35;93081.53;6166948;23;19998;-86
2022/09/28 09:06:54;;;;;;;15.80;5.85;;;;;;;17.29;68.90;93075.78;6166590;23;20008;-87
2022/09/28 09:09:57;;;;;;;13.38;5.72;;;;;;;17.33;68.61;93080.03;6168486;23;20199;-90
2022/09/28 09:12:40;;;;;;;12.65;4.85;;;;;;;17.37;68.10;93070.06;6167148;23;20021;-87
2022/09/28 09:15:32;;;;;;;8.25;4.97;;;;;;;17.49;68.08;93077.09;6166625;23;20004;-88
2022/09/28 09:18:08;;;;;;;;;;;;;;;17.60;68.85;93071.75;6152596;23;20005;-86
2022/09/28 09:20:49;;;;;;;12.15;4.93;;;;;;;17.66;68.22;93070.25;6165252;23;19920;-86
2022/09/28 09:23:55;;;;;;;17.25;4.70;;;;;;;17.78;66.46;93061.84;6166864;23;20224;-85
2022/09/28 09:26:38;;;;;;;8.52;3.90;;;;;;;17.79;66.48;93058.00;6133345;23;20053;-87
2022/09/28 09:29:06;;;;;;;;;;;;;;;17.82;65.71;93065.31;6167089;23;19998;-81
2022/09/28 09:31:37;;;;;;;10.82;3.58;;;;;;;17.93;64.84;93060.03;6165870;23;19912;-90
2022/09/28 09:34:15;;;;;;;9.07;3.90;;;;;;;18.09;65.48;93051.59;6165583;23;19998;-84
2022/09/28 09:36:58;;;;;;;10.73;3.75;;;;;;;18.18;64.30;93052.03;6166586;23;20235;-84
2022/09/28 09:39:38;;;;;;;8.32;3.83;;;;;;;18.25;64.66;93056.66;6166499;23;20017;-89
2022/09/28 09:42:31;;;;;;;11.52;3.70;;;;;;;18.36;63.19;93054.78;6166148;23;20067;-88
2022/09/28 09:45:08;;;;;;;15.80;3.97;;;;;;;18.50;63.14;93053.25;6165158;23;20202;-86
2022/09/28 09:47:44;;;;;;;20.20;3.85;;;;;;;18.59;62.85;93054.44;6165179;23;20207;-86
2022/09/28 09:50:29;;;;;;;9.18;3.30;;;;;;;18.70;62.41;93059.84;6166044;23;20045;-86
2022/09/28 09:53:18;;;;;;;9.43;2.95;;;;;;;18.81;61.56;93059.91;6166204;23;20204;-87
2022/09/28 09:55:53;;;;;;;17.83;3.25;;;;;;;18.95;61.27;93059.13;6163976;23;20016;-87
2022/09/28 09:58:56;;;;;;;7.55;2.83;;;;;;;19.07;59.63;93049.88;6166406;23;20025;-87
2022/09/28 10:01:40;;;;;;;7.85;2.97;;;;;;;19.19;58.85;93052.19;6105236;23;20009;-89
2022/09/28 10:04:18;;;;;;;13.38;2.80;;;;;;;19.31;56.92;93054.50;6164861;23;20232;-88
2022/09/28 10:06:44;;;;;;;10.15;3.30;;;;;;;19.47;58.00;93056.78;6166636;23;20173;-88
2022/09/28 10:09:15;;;;;;;8.20;2.58;;;;;;;19.59;57.16;93058.31;6166025;23;20322;-87
2022/09/28 10:11:47;;;;;;;8.35;3.10;;;;;;;19.75;56.33;93049.81;6165873;23;20295;-86
2022/09/28 10:14:16;;;;;;;12.88;3.45;;;;;;;19.80;56.18;93044.78;6165938;23;20010;-87
2022/09/28 10:16:44;;;;;;;17.67;3.42;;;;;;;19.95;55.11;93042.81;6165724;23;20005;-87
2022/09/28 10:19:14;;;;;;;16.90;3.40;;;;;;;20.03;54.92;93030.03;6164396;23;20008;-86
2022/09/28 10:21:41;;;;;;;10.07;3.28;;;;;;;20.13;55.36;93031.13;6165750;23;20310;-87
2022/09/28 10:24:30;;;;;;;7.45;2.45;;;;;;;20.31;54.61;93031.03;6165996;23;20009;-87
2022/09/28 10:27:02;;;;;;;5.63;2.20;;;;;;;20.40;53.84;93031.41;6165461;23;19997;-86
2022/09/28 10:29:39;;;;;;;8.35;3.08;;;;;;;20.48;51.34;93013.94;6165393;23;20073;-86
2022/09/28 10:32:17;;;;;;;10.05;1.92;;;;;;;20.62;51.34;93027.44;6165377;23;20029;-86
2022/09/28 10:34:43;;;;;;;14.13;2.63;;;;;;;20.82;50.36;93021.47;6165591;23;20005;-87
2022/09/28 10:37:10;;;;;;;6.82;2.00;;;;;;;20.96;50.33;93021.38;6165579;23;20048;-83
2022/09/28 10:39:44;;;;;;;6.80;2.60;;;;;;;21.04;50.19;93012.03;6166544;23;20024;-87
2022/09/28 10:42:19;;;;;;;4.47;1.60;;;;;;;21.15;48.72;93011.19;6165759;23;20050;-88
2022/09/28 10:45:17;;;;;;;9.00;1.55;;;;;;;21.19;49.26;93017.34;6164881;23;20002;-87
2022/09/28 10:47:46;;;;;;;6.40;2.05;;;;;;;21.30;48.60;93015.28;6165819;23;20001;-88
2022/09/28 10:50:21;;;;;;;6.75;2.10;;;;;;;21.40;47.25;93008.22;6166255;23;20001;-87
2022/09/28 10:52:47;;;;;;;4.95;1.70;;;;;;;21.38;45.34;93003.19;6165460;23;19994;-88
2022/09/28 10:55:31;;;;;;;5.30;1.38;;;;;;;21.48;45.14;93008.97;6165202;23;20092;-89
2022/09/28 10:58:16;;;;;;;4.22;1.83;;;;;;;21.61;46.92;93007.25;6166489;23;20024;-87
2022/09/28 11:00:43;;;;;;;8.88;1.85;;;;;;;21.63;44.55;92999.50;6166082;23;20002;-87
2022/09/28 11:03:19;;;;;;;14.93;2.28;;;;;;;21.77;45.24;92996.63;6166560;23;20028;-92
2022/09/28 11:06:06;;;;;;;9.82;2.25;;;;;;;21.95;44.93;92995.66;6165739;23;20002;-83
2022/09/28 11:08:37;;;;;;;11.88;1.85;;;;;;;22.12;43.10;92999.31;6165229;23;19994;-81
2022/09/28 11:11:14;;;;;;;11.02;2.75;;;;;;;22.07;41.60;92994.34;6165853;23;20002;-88
2022/09/28 11:13:46;;;;;;;3.05;1.40;;;;;;;22.09;41.95;92984.63;6166254;23;20004;-85
2022/09/28 11:16:38;;;;;;;5.68;1.88;;;;;;;22.19;44.42;92983.72;6165893;23;19997;-85
2022/09/28 11:19:25;;;;;;;6.03;2.33;;;;;;;22.24;44.64;92975.13;6159768;23;20326;-86
2022/09/28 11:21:51;;;;;;;4.55;1.50;;;;;;;22.26;43.04;92976.69;6165401;23;20032;-83
2022/09/28 11:24:22;;;;;;;7.18;1.67;;;;;;;22.40;44.18;92974.53;6166407;23;20296;-87
2022/09/28 11:26:55;;;;;;;12.30;2.35;;;;;;;22.60;43.02;92968.44;6164080;23;20244;-81
2022/09/28 11:29:36;;;;;;;7.38;1.63;;;;;;;22.81;43.22;92953.75;6165061;23;20005;-83
2022/09/28 11:32:04;;;;;;;8.25;1.60;;;;;;;23.12;41.63;92949.03;6164782;23;20010;-83
2022/09/28 11:34:36;;;;;;;5.13;1.75;;;;;;;23.38;40.97;92943.91;6165700;23;19997;-85
2022/09/28 11:37:42;;;;;;;8.60;1.52;;;;;;;23.46;40.67;92958.13;6165434;23;20021;-83
2022/09/28 11:40:45;;;;;;;5.80;1.40;;;;;;;23.60;40.10;92952.44;6165208;23;20057;-83
2022/09/28 11:43:11;;;;;;;3.42;1.55;;;;;;;23.76;40.55;92957.19;6164832;23;20001;-84
2022/09/28 11:46:08;;;;;;;6.57;1.83;;;;;;;23.95;39.27;92950.97;6163642;23;20008;-85
2022/09/28 11:48:48;;;;;;;8.70;1.67;;;;;;;24.17;38.71;92953.25;6165636;23;19998;-84
2022/09/28 11:51:30;;;;;;;6.40;1.90;;;;;;;24.46;37.55;92964.28;6165409;23;20037;-85
2022/09/28 11:54:22;;;;;;;4.22;1.48;;;;;;;24.69;37.43;92970.81;6165813;23;20000;-85
2022/09/28 11:56:49;;;;;;;7.03;1.85;;;;;;;24.94;37.47;92965.56;6165588;23;20001;-85
2022/09/28 11:59:26;;;;;;;9.48;1.35;;;;;;;25.24;35.11;92955.53;6165282;23;20271;-85